createdAt,value
2023-02-09T00:01:09.626Z,16.92
2023-02-09T00:03:36.795Z,20.23
2023-02-09T00:06:06.148Z,15.10
2023-02-09T00:08:36.625Z,18.15
2023-02-09T00:11:12.746Z,20.23
2023-02-09T00:13:39.477Z,17.52
2023-02-09T00:16:06.793Z,17.90
2023-02-09T00:18:34.129Z,19.42
2023-02-09T00:21:10.790Z,18.38
2023-02-09T00:23:40.434Z,18.20
2023-02-09T00:26:10.688Z,18.10
2023-02-09T00:28:38.159Z,19.85
2023-02-09T00:31:10.282Z,18.00
2023-02-09T00:33:37.944Z,18.83
2023-02-09T00:36:10.648Z,19.33
2023-02-09T00:38:37.522Z,18.13
2023-02-09T00:41:05.175Z,19.63
2023-02-09T00:43:32.831Z,19.33
2023-02-09T00:45:59.907Z,20.90
2023-02-09T00:48:27.021Z,17.38
2023-02-09T00:50:54.178Z,21.13
2023-02-09T00:53:22.354Z,19.17
2023-02-09T00:55:49.463Z,19.20
2023-02-09T00:58:17.120Z,21.95
2023-02-09T01:00:44.128Z,17.15
2023-02-09T01:03:11.429Z,19.67
2023-02-09T01:05:42.180Z,19.00
2023-02-09T01:08:09.438Z,17.38
2023-02-09T01:10:38.368Z,20.00
2023-02-09T01:13:05.574Z,20.80
2023-02-09T01:15:32.598Z,21.17
2023-02-09T01:18:00.189Z,21.38
2023-02-09T01:20:27.712Z,19.08
2023-02-09T01:22:54.577Z,17.13
2023-02-09T01:25:21.412Z,17.02
2023-02-09T01:27:48.157Z,19.60
2023-02-09T01:30:15.145Z,21.65
2023-02-09T01:32:42.159Z,22.13
2023-02-09T01:35:09.118Z,22.30
2023-02-09T01:37:36.255Z,20.02
2023-02-09T01:40:04.040Z,18.75
2023-02-09T01:42:30.789Z,20.15
2023-02-09T01:45:25.412Z,18.13
2023-02-09T01:48:00.783Z,18.13
2023-02-09T01:50:30.919Z,22.83
2023-02-09T01:52:57.979Z,19.88
2023-02-09T01:55:29.108Z,17.75
2023-02-09T01:58:02.893Z,20.02
2023-02-09T02:00:29.687Z,17.85
2023-02-09T02:03:04.580Z,20.25
2023-02-09T02:05:37.633Z,16.60
2023-02-09T02:08:06.548Z,18.60
2023-02-09T02:10:33.342Z,17.25
2023-02-09T02:13:00.920Z,17.15
2023-02-09T02:15:37.130Z,19.60
2023-02-09T02:18:34.459Z,18.15
2023-02-09T02:21:20.038Z,19.13
2023-02-09T02:23:56.015Z,16.42
2023-02-09T02:26:40.776Z,18.10
2023-02-09T02:29:45.049Z,22.65
2023-02-09T02:32:20.777Z,18.13
2023-02-09T02:35:01.567Z,21.70
2023-02-09T02:37:43.738Z,19.38
2023-02-09T02:40:21.402Z,20.42
2023-02-09T02:42:53.981Z,17.85
2023-02-09T02:45:44.856Z,19.17
2023-02-09T02:48:11.513Z,17.35
2023-02-09T02:50:55.065Z,20.90
2023-02-09T02:53:26.594Z,18.70
2023-02-09T02:55:55.222Z,16.90
2023-02-09T02:58:23.869Z,21.33
2023-02-09T03:00:55.477Z,21.73
2023-02-09T03:03:25.217Z,18.00
2023-02-09T03:05:52.401Z,19.98
2023-02-09T03:08:19.196Z,19.63
2023-02-09T03:10:46.590Z,24.85
2023-02-09T03:13:30.951Z,17.73
2023-02-09T03:16:07.108Z,20.15
2023-02-09T03:18:47.490Z,20.20
2023-02-09T03:21:49.271Z,18.98
2023-02-09T03:24:39.680Z,22.48
2023-02-09T03:27:29.307Z,25.02
2023-02-09T03:30:01.120Z,16.67
2023-02-09T03:34:55.934Z,22.83
2023-02-09T03:37:23.367Z,22.83
2023-02-09T03:39:50.136Z,21.65
2023-02-09T03:42:16.819Z,19.65
2023-02-09T03:44:43.478Z,20.58
2023-02-09T03:47:10.618Z,20.33
2023-02-09T03:49:39.993Z,21.13
2023-02-09T03:52:10.131Z,20.17
2023-02-09T03:54:37.353Z,19.98
2023-02-09T03:57:05.126Z,18.17
2023-02-09T03:59:35.445Z,19.20
2023-02-09T04:02:02.289Z,20.52
2023-02-09T04:04:29.242Z,22.25
2023-02-09T04:06:56.268Z,19.63
2023-02-09T04:09:24.007Z,21.77
2023-02-09T04:11:51.068Z,20.23
2023-02-09T04:14:17.792Z,21.63
2023-02-09T04:16:44.800Z,17.10
2023-02-09T04:19:12.392Z,21.33
2023-02-09T04:21:39.402Z,21.00
2023-02-09T04:24:06.741Z,18.80
2023-02-09T04:26:33.627Z,19.02
2023-02-09T04:29:00.574Z,23.85
2023-02-09T04:31:27.392Z,20.02
2023-02-09T04:33:54.151Z,27.02
2023-02-09T04:36:23.315Z,21.35
2023-02-09T04:38:50.797Z,23.58
2023-02-09T04:41:17.943Z,20.23
2023-02-09T04:43:46.115Z,23.33
2023-02-09T04:46:14.638Z,22.67
2023-02-09T04:48:41.796Z,22.45
2023-02-09T04:51:08.693Z,22.25
2023-02-09T04:53:35.455Z,19.88
2023-02-09T04:56:02.233Z,20.40
2023-02-09T04:58:47.267Z,21.13
2023-02-09T05:01:20.011Z,21.50
2023-02-09T05:03:46.825Z,21.30
2023-02-09T05:06:13.585Z,23.15
2023-02-09T05:08:40.370Z,19.75
2023-02-09T05:11:07.082Z,20.48
2023-02-09T05:13:33.907Z,18.13
2023-02-09T05:16:04.409Z,20.98
2023-02-09T05:18:31.147Z,18.27
2023-02-09T05:20:57.885Z,17.48
2023-02-09T05:23:24.610Z,21.58
2023-02-09T05:25:51.274Z,19.70
2023-02-09T05:28:18.038Z,18.42
2023-02-09T05:30:45.170Z,19.95
2023-02-09T05:33:12.182Z,22.38
2023-02-09T05:35:39.000Z,19.92
2023-02-09T05:38:05.825Z,20.25
2023-02-09T05:40:32.603Z,19.88
2023-02-09T05:42:59.771Z,19.20
2023-02-09T05:45:26.583Z,16.55
2023-02-09T05:47:53.696Z,17.60
2023-02-09T05:50:20.410Z,18.20
2023-02-09T05:52:47.104Z,22.67
2023-02-09T05:55:13.852Z,18.33
2023-02-09T05:57:40.672Z,16.60
2023-02-09T06:00:08.512Z,21.17
2023-02-09T06:02:35.276Z,21.77
2023-02-09T06:05:01.966Z,17.38
2023-02-09T06:07:28.848Z,16.60
2023-02-09T06:09:55.758Z,16.63
2023-02-09T06:12:22.597Z,18.23
2023-02-09T06:14:49.348Z,19.48
2023-02-09T06:17:16.107Z,18.00
2023-02-09T06:19:42.949Z,15.20
2023-02-09T06:22:09.619Z,17.60
2023-02-09T06:24:36.382Z,17.17
2023-02-09T06:27:03.133Z,18.25
2023-02-09T06:29:29.966Z,18.77
2023-02-09T06:31:56.780Z,20.63
2023-02-09T06:34:23.631Z,21.35
2023-02-09T06:36:50.351Z,18.17
2023-02-09T06:39:17.061Z,18.20
2023-02-09T06:41:43.766Z,21.45
2023-02-09T06:44:11.405Z,17.10
2023-02-09T06:46:39.168Z,20.33
2023-02-09T06:49:05.993Z,19.33
2023-02-09T06:51:33.184Z,20.52
2023-02-09T06:54:00.140Z,18.95
2023-02-09T06:56:26.891Z,20.02
2023-02-09T06:58:53.749Z,19.20
2023-02-09T07:01:20.543Z,20.15
2023-02-09T07:03:47.369Z,18.75
2023-02-09T07:06:19.249Z,22.58
2023-02-09T07:08:46.423Z,19.52
2023-02-09T07:11:15.432Z,23.33
2023-02-09T07:13:43.003Z,18.90
2023-02-09T07:16:11.506Z,19.70
2023-02-09T07:18:38.636Z,20.27
2023-02-09T07:21:10.958Z,23.05
2023-02-09T07:23:38.185Z,21.83
2023-02-09T07:26:07.027Z,24.65
2023-02-09T07:28:35.403Z,23.13
2023-02-09T07:31:07.637Z,23.63
2023-02-09T07:33:34.998Z,20.67
2023-02-09T07:36:06.667Z,21.83
2023-02-09T07:41:02.200Z,20.27
2023-02-09T07:43:29.368Z,31.55
2023-02-09T07:46:07.128Z,20.88
2023-02-09T07:48:35.121Z,21.90
2023-02-09T07:51:02.303Z,22.77
2023-02-09T07:53:29.096Z,26.13
2023-02-09T07:55:55.931Z,18.23
2023-02-09T07:58:22.795Z,22.75
2023-02-09T08:00:50.996Z,20.42
2023-02-09T08:03:20.558Z,17.85
2023-02-09T08:06:10.334Z,22.77
2023-02-09T08:08:37.069Z,23.48
2023-02-09T08:11:05.493Z,22.15
2023-02-09T08:13:35.808Z,19.95
2023-02-09T08:16:04.936Z,21.35
2023-02-09T08:18:41.012Z,19.38
2023-02-09T08:21:10.805Z,20.58
2023-02-09T08:23:40.574Z,17.55
2023-02-09T08:26:11.373Z,21.42
2023-02-09T08:28:44.916Z,24.23
2023-02-09T08:31:13.602Z,21.15
2023-02-09T08:33:41.119Z,23.15
2023-02-09T08:36:08.466Z,21.98
2023-02-09T08:38:35.489Z,19.92
2023-02-09T08:41:04.659Z,20.10
2023-02-09T08:43:32.031Z,22.55
2023-02-09T08:46:07.882Z,21.20
2023-02-09T08:48:36.542Z,22.80
2023-02-09T08:51:03.785Z,23.33
2023-02-09T08:53:30.583Z,21.77
2023-02-09T08:55:57.292Z,19.75
2023-02-09T08:58:25.171Z,19.75
2023-02-09T09:00:53.818Z,20.90
2023-02-09T09:03:20.586Z,22.50
2023-02-09T09:05:47.716Z,21.65
2023-02-09T09:08:14.607Z,20.20
2023-02-09T09:10:41.329Z,25.50
2023-02-09T09:13:08.097Z,30.33
2023-02-09T09:15:35.958Z,23.27
2023-02-09T09:18:02.819Z,21.23
2023-02-09T09:20:29.512Z,20.27
2023-02-09T09:22:59.457Z,23.05
2023-02-09T09:25:26.261Z,22.02
2023-02-09T09:27:52.970Z,26.88
2023-02-09T09:30:19.842Z,21.52
2023-02-09T09:32:46.581Z,21.83
2023-02-09T09:35:13.367Z,21.98
2023-02-09T09:37:40.623Z,21.65
2023-02-09T09:40:12.277Z,21.23
2023-02-09T09:42:47.006Z,24.52
2023-02-09T09:45:19.187Z,23.50
2023-02-09T09:47:45.987Z,22.23
2023-02-09T09:50:26.626Z,21.88
2023-02-09T09:53:12.547Z,21.45
2023-02-09T09:55:39.656Z,20.42
2023-02-09T09:58:07.583Z,23.60
2023-02-09T10:00:41.173Z,25.58
2023-02-09T10:03:19.692Z,21.85
2023-02-09T10:05:52.382Z,22.05
2023-02-09T10:08:30.291Z,26.38
2023-02-09T10:10:57.002Z,24.77
2023-02-09T10:13:25.185Z,26.05
2023-02-09T10:15:55.248Z,27.45
2023-02-09T10:18:28.272Z,27.30
2023-02-09T10:20:56.817Z,27.98
2023-02-09T10:23:27.214Z,25.33
2023-02-09T10:26:17.177Z,27.38
2023-02-09T10:28:56.583Z,24.17
2023-02-09T10:31:28.667Z,27.95
2023-02-09T10:34:06.209Z,24.90
2023-02-09T10:36:50.400Z,31.33
2023-02-09T10:39:30.137Z,28.95
2023-02-09T10:42:16.333Z,29.65
2023-02-09T10:44:48.917Z,27.50
2023-02-09T10:47:21.428Z,28.20
2023-02-09T10:49:55.412Z,31.20
2023-02-09T10:52:31.488Z,27.92
2023-02-09T10:55:15.684Z,32.28
2023-02-09T10:57:42.717Z,28.45
2023-02-09T11:00:15.351Z,29.23
2023-02-09T11:02:52.836Z,27.40
2023-02-09T11:05:22.586Z,27.88
2023-02-09T11:07:57.830Z,31.15
2023-02-09T11:10:26.117Z,29.77
2023-02-09T11:12:52.901Z,32.70
2023-02-09T11:15:26.618Z,29.40
2023-02-09T11:18:23.640Z,34.67
2023-02-09T11:20:58.663Z,30.15
2023-02-09T11:23:55.911Z,28.25
2023-02-09T11:26:47.584Z,31.85
2023-02-09T11:29:23.046Z,31.08
2023-02-09T11:32:11.818Z,30.10
2023-02-09T11:35:09.378Z,30.73
2023-02-09T11:37:48.263Z,30.15
2023-02-09T11:40:26.825Z,28.42
2023-02-09T11:43:02.588Z,36.13
2023-02-09T11:45:43.939Z,29.58
2023-02-09T11:48:26.093Z,32.92
2023-02-09T11:51:11.304Z,32.72
2023-02-09T11:53:46.085Z,31.30
2023-02-09T11:56:22.323Z,32.92
2023-02-09T11:58:55.034Z,34.45
2023-02-09T12:02:04.373Z,32.53
2023-02-09T12:04:50.054Z,33.97
2023-02-09T12:07:50.757Z,33.47
2023-02-09T12:10:47.556Z,32.65
2023-02-09T12:13:29.727Z,34.03
2023-02-09T12:16:00.788Z,29.55
2023-02-09T12:18:30.579Z,31.92
2023-02-09T12:21:05.518Z,34.53
2023-02-09T12:23:43.552Z,34.25
2023-02-09T12:26:13.012Z,34.60
2023-02-09T12:28:47.443Z,36.97
2023-02-09T12:31:21.005Z,40.42
2023-02-09T12:33:47.686Z,37.60
2023-02-09T12:36:14.438Z,34.58
2023-02-09T12:38:53.529Z,34.17
2023-02-09T12:41:31.516Z,33.60
2023-02-09T12:44:10.524Z,36.42
2023-02-09T12:46:46.821Z,39.40
2023-02-09T12:49:13.775Z,39.25
2023-02-09T12:51:55.564Z,33.92
2023-02-09T12:54:36.501Z,39.13
2023-02-09T12:57:15.652Z,38.33
2023-02-09T12:59:59.666Z,38.50
2023-02-09T13:02:48.395Z,40.90
2023-02-09T13:05:15.145Z,37.38
2023-02-09T13:08:04.984Z,36.15
2023-02-09T13:11:01.070Z,36.55
2023-02-09T13:13:45.143Z,41.72
2023-02-09T13:16:20.399Z,38.33
2023-02-09T13:19:05.394Z,36.72
2023-02-09T13:21:53.955Z,36.35
2023-02-09T13:24:34.307Z,42.90
2023-02-09T13:27:01.240Z,39.58
2023-02-09T13:29:32.302Z,45.15
2023-02-09T13:32:08.060Z,43.42
2023-02-09T13:35:20.372Z,39.95
2023-02-09T13:40:21.815Z,37.65
2023-02-09T13:43:02.224Z,42.13
2023-02-09T13:45:29.517Z,41.88
2023-02-09T13:47:59.285Z,40.40
2023-02-09T13:50:31.784Z,41.50
2023-02-09T13:53:09.822Z,38.83
2023-02-09T13:55:39.937Z,38.42
2023-02-09T13:58:14.275Z,44.28
2023-02-09T14:00:44.832Z,43.30
2023-02-09T14:03:23.265Z,45.53
2023-02-09T14:06:18.098Z,40.60
2023-02-09T14:08:46.570Z,40.20
2023-02-09T14:11:41.877Z,42.35
2023-02-09T14:14:26.354Z,42.67
2023-02-09T14:17:24.346Z,40.03
2023-02-09T14:19:52.659Z,46.90
2023-02-09T14:22:39.525Z,47.45
2023-02-09T14:25:15.548Z,46.60
2023-02-09T14:27:47.127Z,43.92
2023-02-09T14:30:17.010Z,45.53
2023-02-09T14:32:48.404Z,50.53
2023-02-09T14:35:23.894Z,49.17
2023-02-09T14:37:53.434Z,41.45
2023-02-09T14:40:34.471Z,46.05
2023-02-09T14:43:10.059Z,49.60
2023-02-09T14:45:46.466Z,49.05
2023-02-09T14:48:22.418Z,51.83
2023-02-09T14:50:50.586Z,55.40
2023-02-09T14:53:18.615Z,50.70
2023-02-09T14:55:45.870Z,50.53
2023-02-09T14:58:12.792Z,52.60
2023-02-09T15:00:39.500Z,55.17
2023-02-09T15:03:06.235Z,48.67
2023-02-09T15:05:33.055Z,48.88
2023-02-09T15:08:05.782Z,49.90
2023-02-09T15:10:45.353Z,53.03
2023-02-09T15:13:14.515Z,51.63
2023-02-09T15:15:42.867Z,49.08
2023-02-09T15:18:20.352Z,50.88
2023-02-09T15:20:47.690Z,51.38
2023-02-09T15:23:14.840Z,55.35
2023-02-09T15:25:42.394Z,52.65
2023-02-09T15:28:32.263Z,55.88
2023-02-09T15:30:59.773Z,52.20
2023-02-09T15:33:28.435Z,58.28
2023-02-09T15:35:58.961Z,51.28
2023-02-09T15:38:27.591Z,54.30
2023-02-09T15:41:12.946Z,56.80
2023-02-09T15:43:58.328Z,102.82
2023-02-09T15:46:43.965Z,74.43
2023-02-09T15:49:10.738Z,64.75
2023-02-09T15:51:39.198Z,57.42
2023-02-09T15:54:21.522Z,55.63
2023-02-09T15:56:48.370Z,54.85
2023-02-09T15:59:22.980Z,55.03
2023-02-09T16:01:50.430Z,57.38
2023-02-09T16:04:17.266Z,59.13
2023-02-09T16:06:49.255Z,57.67
2023-02-09T16:09:26.754Z,56.88
2023-02-09T16:11:53.872Z,53.67
2023-02-09T16:14:22.804Z,58.83
2023-02-09T16:16:50.087Z,49.05
2023-02-09T16:19:17.253Z,62.22
2023-02-09T16:21:48.947Z,57.17
2023-02-09T16:27:15.475Z,54.95
2023-02-09T16:29:42.674Z,55.40
2023-02-09T16:32:21.996Z,45.53
2023-02-09T16:34:49.233Z,45.05
2023-02-09T16:37:23.831Z,40.45
2023-02-09T16:39:50.582Z,38.20
2023-02-09T16:42:17.375Z,40.22
2023-02-09T16:44:44.146Z,35.33
2023-02-09T16:47:25.256Z,41.85
2023-02-09T16:49:57.718Z,40.70
2023-02-09T16:52:26.034Z,43.15
2023-02-09T16:54:55.873Z,42.28
2023-02-09T16:57:24.614Z,39.58
2023-02-09T16:59:52.767Z,40.92
2023-02-09T17:02:42.470Z,41.00
2023-02-09T17:05:24.332Z,41.38
2023-02-09T17:10:24.749Z,40.05
2023-02-09T17:12:53.609Z,41.42
2023-02-09T17:15:30.181Z,39.60
2023-02-09T17:18:05.114Z,44.92
2023-02-09T17:20:44.065Z,35.65
2023-02-09T17:23:16.060Z,43.35
2023-02-09T17:25:43.390Z,42.78
2023-02-09T17:28:10.453Z,41.88
2023-02-09T17:30:37.808Z,47.20
2023-02-09T17:33:08.016Z,40.28
2023-02-09T17:36:10.234Z,42.63
2023-02-09T17:38:33.721Z,40.90
2023-02-09T17:41:05.405Z,38.00
2023-02-09T17:43:32.295Z,36.65
2023-02-09T17:45:59.059Z,37.83
2023-02-09T17:48:25.841Z,39.22
2023-02-09T17:50:56.282Z,40.38
2023-02-09T17:53:26.789Z,39.78
2023-02-09T17:55:56.326Z,37.25
2023-02-09T17:58:24.323Z,38.08
2023-02-09T18:00:53.223Z,44.80
2023-02-09T18:03:22.465Z,41.85
2023-02-09T18:06:01.735Z,45.40
2023-02-09T18:08:28.695Z,49.30
2023-02-09T18:10:58.617Z,43.38
2023-02-09T18:13:27.087Z,42.38
2023-02-09T18:15:54.645Z,45.70
2023-02-09T18:18:24.076Z,50.90
2023-02-09T18:20:51.056Z,46.20
2023-02-09T18:23:17.763Z,43.83
2023-02-09T18:25:46.583Z,40.85
2023-02-09T18:28:15.054Z,41.03
2023-02-09T18:30:42.909Z,43.53
2023-02-09T18:33:11.182Z,46.38
2023-02-09T18:35:39.303Z,42.83
2023-02-09T18:38:09.460Z,45.83
2023-02-09T18:40:37.383Z,44.60
2023-02-09T18:43:05.760Z,36.95
2023-02-09T18:45:33.268Z,35.85
2023-02-09T18:48:00.774Z,38.80
2023-02-09T18:50:30.308Z,46.78
2023-02-09T18:53:02.209Z,42.17
2023-02-09T18:55:31.993Z,40.33
2023-02-09T18:58:00.268Z,37.53
2023-02-09T19:00:27.600Z,44.25
2023-02-09T19:02:58.816Z,40.08
2023-02-09T19:05:28.657Z,38.90
2023-02-09T19:07:56.264Z,40.35
2023-02-09T19:10:23.859Z,47.10
2023-02-09T19:12:50.565Z,41.88
2023-02-09T19:15:18.352Z,41.25
2023-02-09T19:17:45.820Z,45.80
2023-02-09T19:20:21.436Z,50.17
2023-02-09T19:22:51.412Z,43.30
2023-02-09T19:25:19.778Z,37.67
2023-02-09T19:27:46.534Z,38.63
2023-02-09T19:30:18.458Z,43.00
2023-02-09T19:32:45.200Z,47.42
2023-02-09T19:35:12.043Z,37.47
2023-02-09T19:37:40.465Z,41.53
2023-02-09T19:40:17.483Z,42.33
2023-02-09T19:42:44.170Z,34.55
2023-02-09T19:45:10.867Z,36.38
2023-02-09T19:47:38.315Z,32.15
2023-02-09T19:50:05.463Z,40.10
2023-02-09T19:52:34.781Z,38.72
2023-02-09T19:55:02.489Z,38.70
2023-02-09T19:57:29.274Z,40.72
2023-02-09T19:59:56.006Z,34.72
2023-02-09T20:02:22.744Z,40.00
2023-02-09T20:04:49.557Z,39.90
2023-02-09T20:07:16.287Z,38.05
2023-02-09T20:09:43.286Z,41.13
2023-02-09T20:12:09.990Z,36.45
2023-02-09T20:14:36.823Z,42.72
2023-02-09T20:17:03.558Z,36.35
2023-02-09T20:19:30.550Z,43.63
2023-02-09T20:21:57.290Z,40.88
2023-02-09T20:24:24.250Z,38.05
2023-02-09T20:26:50.980Z,46.65
2023-02-09T20:29:19.154Z,33.45
2023-02-09T20:31:45.980Z,34.03
2023-02-09T20:34:14.120Z,34.75
2023-02-09T20:36:43.018Z,41.03
2023-02-09T20:39:13.454Z,36.97
2023-02-09T20:42:00.112Z,32.38
2023-02-09T20:44:45.321Z,39.70
2023-02-09T20:47:12.100Z,37.85
2023-02-09T20:49:40.542Z,35.28
2023-02-09T20:52:08.920Z,37.97
2023-02-09T20:54:36.410Z,39.60
2023-02-09T20:57:04.309Z,35.95
2023-02-09T20:59:31.187Z,36.28
2023-02-09T21:01:58.796Z,39.70
2023-02-09T21:04:27.079Z,38.50
2023-02-09T21:06:54.200Z,37.90
2023-02-09T21:09:26.202Z,32.90
2023-02-09T21:11:54.253Z,36.42
2023-02-09T21:14:32.586Z,32.45
2023-02-09T21:17:07.708Z,36.53
2023-02-09T21:19:34.785Z,36.05
2023-02-09T21:22:01.506Z,38.67
2023-02-09T21:24:28.355Z,32.88
2023-02-09T21:26:55.099Z,32.05
2023-02-09T21:29:21.933Z,28.80
2023-02-09T21:31:48.800Z,35.72
2023-02-09T21:34:16.755Z,32.13
2023-02-09T21:36:44.208Z,33.33
2023-02-09T21:39:10.977Z,34.70
2023-02-09T21:41:56.176Z,41.72
2023-02-09T21:44:23.373Z,39.67
2023-02-09T21:46:50.720Z,34.08
2023-02-09T21:49:17.563Z,39.97
2023-02-09T21:51:44.660Z,44.53
2023-02-09T21:54:16.083Z,38.45
2023-02-09T21:56:43.296Z,43.60
2023-02-09T21:59:10.249Z,39.03
2023-02-09T22:01:37.604Z,35.03
2023-02-09T22:04:05.131Z,41.38
2023-02-09T22:06:32.364Z,37.75
2023-02-09T22:09:02.596Z,33.10
2023-02-09T22:11:29.789Z,33.63
2023-02-09T22:13:56.644Z,35.38
2023-02-09T22:16:24.364Z,32.92
2023-02-09T22:18:51.698Z,30.38
2023-02-09T22:21:18.972Z,25.75
2023-02-09T22:23:45.698Z,34.70
2023-02-09T22:26:13.916Z,27.77
2023-02-09T22:28:41.990Z,26.88
2023-02-09T22:31:14.471Z,25.17
2023-02-09T22:33:41.477Z,33.45
2023-02-09T22:36:11.876Z,30.13
2023-02-09T22:38:39.359Z,26.92
2023-02-09T22:41:21.946Z,25.85
2023-02-09T22:44:19.397Z,31.77
2023-02-09T22:46:46.505Z,28.83
2023-02-09T22:49:19.431Z,28.98
2023-02-09T22:51:48.067Z,29.45
2023-02-09T22:54:16.671Z,31.83
2023-02-09T22:56:44.255Z,30.85
2023-02-09T22:59:12.780Z,28.15
2023-02-09T23:01:39.948Z,32.15
2023-02-09T23:04:06.871Z,27.27
2023-02-09T23:06:33.922Z,30.65
2023-02-09T23:09:03.806Z,24.60
2023-02-09T23:11:31.677Z,27.02
2023-02-09T23:14:14.776Z,22.35
2023-02-09T23:16:42.918Z,24.35
2023-02-09T23:19:13.235Z,23.45
2023-02-09T23:21:43.148Z,23.35
2023-02-09T23:24:10.237Z,21.20
2023-02-09T23:26:37.690Z,20.20
2023-02-09T23:29:07.218Z,27.23
2023-02-09T23:31:34.765Z,21.17
2023-02-09T23:34:01.502Z,26.98
2023-02-09T23:36:30.569Z,21.52
2023-02-09T23:39:06.250Z,23.92
2023-02-09T23:41:33.985Z,24.83
2023-02-09T23:44:01.292Z,25.58
2023-02-09T23:46:29.187Z,32.65
2023-02-09T23:48:57.293Z,26.90
2023-02-09T23:51:28.431Z,25.60
2023-02-09T23:53:57.068Z,24.90
2023-02-09T23:56:24.262Z,22.73
2023-02-09T23:58:53.139Z,31.77
